Time;durP1;ratioP1;P1;durP2;ratioP2;P2;SDS_P1;SDS_P2;PMS_P1;PMS_P2;Temp;Humidity;BMP_temperature;BMP_pressure;BME280_temperature;BME280_humidity;BME280_pressure;Samples;Min_cycle;Max_cycle;Signal;HPM_P1;HPM_P2
2022/06/09 00:00:16;;;;;;;1.07;0.97;;;14.50;99.90;;;;;;5097091;28;20652;-87
2022/06/09 00:02:47;;;;;;;0.73;0.70;;;14.60;99.90;;;;;;5107434;28;20662;-88
2022/06/09 00:05:14;;;;;;;1.13;0.87;;;14.50;99.90;;;;;;5107659;28;20645;-87
2022/06/09 00:07:42;;;;;;;2.10;0.87;;;14.60;99.90;;;;;;5101519;28;20652;-87
2022/06/09 00:10:11;;;;;;;4.37;1.00;;;14.60;99.90;;;;;;5103333;28;20687;-88
2022/06/09 00:12:39;;;;;;;2.00;1.00;;;14.60;99.90;;;;;;5103386;28;20968;-88
2022/06/09 00:15:09;;;;;;;5.77;0.90;;;14.60;99.90;;;;;;5105150;28;20619;-88
2022/06/09 00:17:39;;;;;;;4.00;0.90;;;14.60;99.90;;;;;;5100474;28;20677;-87
2022/06/09 00:20:09;;;;;;;1.60;1.00;;;14.60;99.90;;;;;;5092506;28;20656;-87
2022/06/09 00:22:36;;;;;;;0.97;0.77;;;14.60;99.90;;;;;;5103273;28;20663;-87
2022/06/09 00:25:04;;;;;;;4.73;1.10;;;14.60;99.90;;;;;;5100470;28;20620;-87
2022/06/09 00:27:31;;;;;;;0.80;0.73;;;14.70;99.90;;;;;;5100358;28;20731;-88
2022/06/09 00:29:57;;;;;;;1.57;1.47;;;14.80;99.90;;;;;;5096995;28;20651;-87
2022/06/09 00:32:24;;;;;;;0.80;0.70;;;14.80;99.90;;;;;;5100108;28;20625;-88
2022/06/09 00:34:52;;;;;;;2.07;0.93;;;14.80;99.90;;;;;;5102481;28;20635;-88
2022/06/09 00:37:19;;;;;;;2.20;1.20;;;14.80;99.90;;;;;;5100900;28;21169;-88
2022/06/09 00:39:46;;;;;;;2.60;1.07;;;14.80;99.90;;;;;;5093696;28;21091;-89
2022/06/09 00:42:13;;;;;;;1.37;0.87;;;14.80;99.90;;;;;;5096006;28;20652;-88
2022/06/09 00:44:40;;;;;;;1.67;1.30;;;14.80;99.90;;;;;;5098367;28;20611;-88
2022/06/09 00:47:09;;;;;;;2.13;0.87;;;14.80;99.90;;;;;;5098486;28;20638;-87
2022/06/09 00:49:44;;;;;;;2.20;1.10;;;14.80;99.90;;;;;;5101437;28;20656;-88
2022/06/09 00:52:18;;;;;;;1.83;0.97;;;14.80;99.90;;;;;;5101153;28;20624;-87
2022/06/09 00:54:49;;;;;;;3.30;0.97;;;14.90;99.90;;;;;;5094785;28;20622;-87
2022/06/09 00:57:20;;;;;;;4.73;1.37;;;14.90;99.90;;;;;;5095035;28;20619;-87
2022/06/09 00:59:51;;;;;;;2.80;1.03;;;14.90;99.90;;;;;;5089184;28;20647;-86
2022/06/09 01:02:20;;;;;;;1.70;1.17;;;14.90;99.90;;;;;;5099306;28;21033;-87
2022/06/09 01:04:50;;;;;;;1.73;1.20;;;15.00;99.90;;;;;;5096509;28;21078;-87
2022/06/09 01:07:22;;;;;;;1.23;1.00;;;15.10;99.90;;;;;;5093941;28;20642;-87
2022/06/09 01:09:49;;;;;;;2.57;0.93;;;15.00;99.90;;;;;;5097256;28;20666;-87
2022/06/09 01:12:26;;;;;;;2.13;1.10;;;15.10;99.90;;;;;;5095231;28;21172;-87
2022/06/09 01:14:57;;;;;;;3.73;1.00;;;15.10;99.90;;;;;;5092738;28;20626;-87
2022/06/09 01:17:31;;;;;;;1.57;0.80;;;15.20;99.90;;;;;;5095792;28;20624;-87
2022/06/09 01:20:09;;;;;;;1.63;1.20;;;15.20;99.90;;;;;;5096968;28;20737;-86
2022/06/09 01:23:10;;;;;;;1.80;0.90;;;15.20;99.90;;;;;;5097026;28;20646;-87
2022/06/09 01:26:09;;;;;;;0.83;0.83;;;15.20;99.90;;;;;;5099276;28;20619;-88
2022/06/09 01:28:52;;;;;;;1.13;0.60;;;15.20;99.90;;;;;;5097807;28;20623;-87
2022/06/09 01:31:29;;;;;;;0.73;0.60;;;15.10;99.90;;;;;;5102678;28;20649;-86
2022/06/09 01:34:03;;;;;;;0.87;0.40;;;15.10;99.90;;;;;;5097542;28;20619;-85
2022/06/09 01:36:37;;;;;;;0.67;0.50;;;15.00;99.90;;;;;;5096620;28;20619;-85
2022/06/09 01:39:05;;;;;;;0.60;0.50;;;15.00;99.90;;;;;;5094868;28;20670;-86
2022/06/09 01:41:33;;;;;;;0.50;0.50;;;14.90;99.90;;;;;;5097812;28;20659;-86
2022/06/09 01:44:01;;;;;;;2.00;0.60;;;14.90;99.90;;;;;;5100069;28;20670;-85
2022/06/09 01:46:32;;;;;;;0.47;0.40;;;14.90;99.90;;;;;;5100520;28;20619;-85
2022/06/09 01:49:11;;;;;;;1.17;0.60;;;14.90;99.90;;;;;;5093726;28;20616;-87
2022/06/09 01:51:40;;;;;;;0.50;0.40;;;14.80;99.90;;;;;;5096270;28;20623;-85
2022/06/09 01:54:14;;;;;;;0.40;0.30;;;14.80;99.90;;;;;;5097005;28;20635;-86
2022/06/09 01:56:48;;;;;;;5.50;0.50;;;14.80;99.90;;;;;;5103782;28;20633;-85
2022/06/09 01:59:19;;;;;;;0.50;0.50;;;14.80;99.90;;;;;;5100388;28;20647;-85
2022/06/09 02:01:53;;;;;;;0.40;0.30;;;14.80;99.90;;;;;;5096053;28;21239;-85
2022/06/09 02:04:24;;;;;;;0.80;0.40;;;14.70;99.90;;;;;;5096793;28;21250;-85
2022/06/09 02:06:53;;;;;;;1.07;0.40;;;14.70;99.90;;;;;;5093361;28;21000;-85
2022/06/09 02:09:23;;;;;;;0.40;0.40;;;14.60;99.90;;;;;;5096547;28;20650;-86
2022/06/09 02:11:53;;;;;;;2.67;0.70;;;14.60;99.90;;;;;;5093541;28;21318;-85
2022/06/09 02:14:22;;;;;;;2.93;0.63;;;14.60;99.90;;;;;;5097381;28;20621;-85
2022/06/09 02:16:50;;;;;;;1.33;0.80;;;14.60;99.90;;;;;;5099483;28;20754;-85
2022/06/09 02:19:17;;;;;;;0.97;0.87;;;14.50;99.90;;;;;;5102395;28;20611;-86
2022/06/09 02:21:44;;;;;;;3.80;0.63;;;14.60;99.90;;;;;;5097734;28;20753;-86
2022/06/09 02:24:11;;;;;;;2.73;1.07;;;14.50;99.90;;;;;;5092206;28;20674;-85
2022/06/09 02:26:38;;;;;;;3.30;0.63;;;14.50;99.90;;;;;;5090077;28;21339;-85
2022/06/09 02:29:05;;;;;;;2.47;1.00;;;14.50;99.90;;;;;;5093321;28;21010;-85
2022/06/09 02:31:32;;;;;;;1.63;0.93;;;14.50;99.90;;;;;;5094229;28;20647;-85
2022/06/09 02:34:00;;;;;;;0.57;0.50;;;14.40;99.90;;;;;;5097416;28;21208;-85
2022/06/09 02:36:27;;;;;;;0.80;0.67;;;14.50;99.90;;;;;;5097992;28;20966;-86
2022/06/09 02:38:54;;;;;;;1.47;0.93;;;14.40;99.90;;;;;;5087407;28;20715;-85
2022/06/09 02:41:21;;;;;;;2.67;0.80;;;14.40;99.90;;;;;;5092439;28;20647;-85
2022/06/09 02:43:48;;;;;;;1.23;0.67;;;14.50;99.90;;;;;;5098162;28;20674;-85
2022/06/09 02:46:15;;;;;;;0.60;0.50;;;14.50;99.90;;;;;;5092744;28;20662;-86
2022/06/09 02:48:42;;;;;;;0.80;0.60;;;14.50;99.90;;;;;;5101779;28;20635;-86
2022/06/09 02:51:19;;;;;;;1.47;0.83;;;14.40;99.90;;;;;;5099864;28;20659;-85
2022/06/09 02:53:46;;;;;;;2.03;1.10;;;14.40;99.90;;;;;;5092171;28;20650;-85
2022/06/09 02:56:12;;;;;;;1.17;0.60;;;14.40;99.90;;;;;;5102010;28;20694;-86
2022/06/09 02:58:39;;;;;;;3.13;1.07;;;14.40;99.90;;;;;;5088649;28;21087;-86
2022/06/09 03:01:07;;;;;;;0.83;0.83;;;14.30;99.90;;;;;;5097351;28;20655;-86
2022/06/09 03:03:33;;;;;;;2.30;0.90;;;14.30;99.90;;;;;;5096758;28;20662;-86
2022/06/09 03:06:01;;;;;;;4.27;1.10;;;14.30;99.90;;;;;;5098725;28;20627;-86
2022/06/09 03:08:30;;;;;;;1.10;1.00;;;14.30;99.90;;;;;;5095573;28;20646;-87
2022/06/09 03:10:56;;;;;;;2.00;0.90;;;14.30;99.90;;;;;;5096640;28;20683;-86
2022/06/09 03:13:23;;;;;;;2.60;1.20;;;14.20;99.90;;;;;;5082627;28;20662;-86
2022/06/09 03:15:50;;;;;;;1.90;1.40;;;14.20;99.90;;;;;;5093947;28;21221;-86
2022/06/09 03:18:17;;;;;;;1.63;0.90;;;14.20;99.90;;;;;;5091632;28;20631;-86
2022/06/09 03:20:45;;;;;;;2.70;1.07;;;14.20;99.90;;;;;;5092099;28;20770;-86
2022/06/09 03:23:11;;;;;;;2.10;0.90;;;14.10;99.90;;;;;;5093310;28;20663;-87
2022/06/09 03:25:41;;;;;;;2.43;1.20;;;14.10;99.90;;;;;;5089442;28;20643;-87
2022/06/09 03:28:09;;;;;;;4.80;0.97;;;14.00;99.90;;;;;;5099605;28;21163;-86
2022/06/09 03:30:35;;;;;;;1.30;1.10;;;14.00;99.90;;;;;;5100334;28;20655;-87
2022/06/09 03:33:03;;;;;;;1.43;1.10;;;13.90;99.90;;;;;;5098289;28;20612;-86
2022/06/09 03:35:30;;;;;;;2.80;1.20;;;13.90;99.90;;;;;;5102654;28;20649;-86
2022/06/09 03:37:56;;;;;;;1.43;1.13;;;13.90;99.90;;;;;;5099984;28;20638;-86
2022/06/09 03:40:25;;;;;;;1.83;1.10;;;13.90;99.90;;;;;;5105243;28;20639;-87
2022/06/09 03:42:53;;;;;;;1.77;1.33;;;13.90;99.90;;;;;;5100507;28;20615;-86
2022/06/09 03:45:21;;;;;;;3.17;1.30;;;13.90;99.90;;;;;;5100506;28;20623;-87
2022/06/09 03:47:47;;;;;;;2.50;1.30;;;13.90;99.90;;;;;;5089429;28;20714;-86
2022/06/09 03:50:17;;;;;;;2.07;1.23;;;13.90;99.90;;;;;;5102398;28;20943;-86
2022/06/09 03:52:44;;;;;;;2.10;1.20;;;13.80;99.90;;;;;;5097364;28;20619;-86
2022/06/09 03:55:11;;;;;;;2.20;1.10;;;13.80;99.90;;;;;;5098462;28;20635;-85
2022/06/09 03:57:38;;;;;;;1.83;1.07;;;13.80;99.90;;;;;;5097383;28;21160;-85
2022/06/09 04:00:09;;;;;;;2.43;1.33;;;13.80;99.90;;;;;;5093019;28;20634;-85
2022/06/09 04:02:36;;;;;;;4.33;1.70;;;13.80;99.90;;;;;;5103133;28;20607;-86
2022/06/09 04:05:03;;;;;;;1.63;1.40;;;13.90;99.90;;;;;;5101513;28;20730;-86
2022/06/09 04:07:30;;;;;;;2.33;2.07;;;13.90;99.90;;;;;;5100107;28;20650;-87
2022/06/09 04:09:57;;;;;;;4.10;1.87;;;13.90;99.90;;;;;;5100091;28;20975;-86
2022/06/09 04:12:24;;;;;;;2.20;1.40;;;13.90;99.90;;;;;;5097727;28;20713;-86
2022/06/09 04:14:51;;;;;;;5.80;2.63;;;14.00;99.90;;;;;;5097343;28;20687;-86
2022/06/09 04:17:19;;;;;;;5.07;1.83;;;14.00;99.90;;;;;;5098519;28;21259;-86
2022/06/09 04:19:46;;;;;;;1.67;1.57;;;14.10;99.90;;;;;;5099765;28;21569;-86
2022/06/09 04:22:13;;;;;;;3.10;1.80;;;14.10;99.90;;;;;;5105567;28;20631;-86
2022/06/09 04:24:40;;;;;;;4.47;1.60;;;14.20;99.90;;;;;;5097771;28;21079;-86
2022/06/09 04:27:07;;;;;;;3.53;1.50;;;14.20;99.90;;;;;;5095049;28;20654;-86
2022/06/09 04:29:34;;;;;;;2.93;1.70;;;14.30;99.90;;;;;;5104025;28;20627;-86
2022/06/09 04:32:01;;;;;;;3.70;2.10;;;14.30;99.90;;;;;;5101386;28;20733;-86
2022/06/09 04:34:29;;;;;;;2.77;2.03;;;14.40;99.90;;;;;;5093512;28;21033;-85
2022/06/09 04:36:57;;;;;;;2.40;1.37;;;14.40;99.90;;;;;;5096946;28;20663;-86
2022/06/09 04:39:24;;;;;;;3.33;1.83;;;14.40;99.90;;;;;;5092297;28;20624;-87
2022/06/09 04:41:51;;;;;;;5.20;1.30;;;14.40;99.90;;;;;;5102400;28;20619;-85
2022/06/09 04:44:18;;;;;;;2.17;1.67;;;14.40;99.90;;;;;;5092593;28;20660;-87
2022/06/09 04:46:44;;;;;;;4.70;1.70;;;14.40;99.90;;;;;;5098520;28;20650;-86
2022/06/09 04:49:11;;;;;;;2.27;1.27;;;14.40;99.90;;;;;;5101424;28;20627;-87
2022/06/09 04:51:39;;;;;;;3.93;1.20;;;14.40;99.90;;;;;;5095890;28;20624;-87
2022/06/09 04:54:07;;;;;;;3.07;1.07;;;14.50;99.90;;;;;;5096384;28;20631;-87
2022/06/09 04:56:36;;;;;;;5.03;1.63;;;14.50;99.90;;;;;;5102721;28;20667;-87
2022/06/09 04:59:03;;;;;;;2.80;1.67;;;14.50;99.90;;;;;;5094976;28;20685;-87
2022/06/09 05:01:31;;;;;;;4.10;1.60;;;14.50;99.90;;;;;;5097414;28;20642;-88
2022/06/09 05:03:59;;;;;;;3.70;1.57;;;14.50;99.90;;;;;;5089679;28;20667;-88
2022/06/09 05:06:27;;;;;;;4.00;0.97;;;14.50;99.90;;;;;;5096940;28;20635;-88
2022/06/09 05:08:57;;;;;;;4.43;1.60;;;14.50;99.90;;;;;;5092920;28;20673;-88
2022/06/09 05:11:26;;;;;;;3.33;1.40;;;14.50;99.90;;;;;;5093759;28;20952;-88
2022/06/09 05:13:54;;;;;;;3.63;1.40;;;14.50;99.90;;;;;;5074166;28;20667;-88
2022/06/09 05:16:21;;;;;;;3.80;1.30;;;14.50;99.90;;;;;;5098135;28;20611;-88
2022/06/09 05:18:49;;;;;;;2.83;1.10;;;14.50;99.90;;;;;;5090104;28;21568;-88
2022/06/09 05:21:16;;;;;;;6.43;1.20;;;14.50;99.90;;;;;;5090484;28;21174;-88
2022/06/09 05:23:43;;;;;;;4.07;1.60;;;14.50;99.90;;;;;;5100678;28;21029;-88
2022/06/09 05:26:11;;;;;;;4.00;1.43;;;14.50;99.90;;;;;;5095488;28;20627;-88
2022/06/09 05:28:39;;;;;;;2.50;1.40;;;14.60;99.90;;;;;;5100158;28;20651;-88
2022/06/09 05:31:06;;;;;;;2.90;1.20;;;14.60;99.90;;;;;;5095746;28;20632;-88
2022/06/09 05:33:33;;;;;;;5.43;2.30;;;14.60;99.90;;;;;;5092903;28;20718;-87
2022/06/09 05:35:59;;;;;;;1.90;1.40;;;14.60;99.90;;;;;;5097467;28;20710;-88
2022/06/09 05:46:43;;;;;;;2.83;1.67;;;14.90;99.90;;;;;;5088583;28;21010;-88
2022/06/09 05:49:10;;;;;;;2.03;1.43;;;14.90;99.90;;;;;;5091812;28;20628;-88
2022/06/09 05:51:38;;;;;;;4.13;1.60;;;14.90;99.90;;;;;;5100493;28;20626;-87
2022/06/09 05:54:05;;;;;;;2.67;1.70;;;14.90;99.90;;;;;;5090494;28;20675;-87
2022/06/09 05:56:36;;;;;;;2.60;1.30;;;14.90;99.90;;;;;;5099930;28;20603;-87
2022/06/09 05:59:04;;;;;;;3.50;2.20;;;14.90;99.90;;;;;;5092277;28;21148;-87
2022/06/09 06:01:31;;;;;;;5.53;1.70;;;15.00;99.90;;;;;;5100962;28;21048;-88
2022/06/09 06:03:58;;;;;;;3.67;1.50;;;15.10;99.90;;;;;;5097371;28;21016;-87
2022/06/09 06:06:36;;;;;;;3.13;1.80;;;15.30;99.90;;;;;;5087526;28;20632;-87
2022/06/09 06:09:05;;;;;;;3.33;1.40;;;15.40;99.90;;;;;;5087390;28;20719;-87
2022/06/09 06:11:35;;;;;;;2.80;1.13;;;15.40;99.90;;;;;;5092296;28;20624;-87
2022/06/09 06:14:03;;;;;;;1.40;0.87;;;15.50;99.90;;;;;;5091325;28;20640;-86
2022/06/09 06:16:30;;;;;;;2.40;1.10;;;15.70;99.90;;;;;;5097742;28;20666;-87
2022/06/09 06:18:58;;;;;;;4.60;1.50;;;15.80;99.90;;;;;;5091095;28;20653;-86
2022/06/09 06:21:25;;;;;;;5.13;1.53;;;15.90;99.90;;;;;;5093534;28;20629;-86
2022/06/09 06:23:53;;;;;;;5.37;1.20;;;16.00;99.90;;;;;;5099599;28;20720;-87
2022/06/09 06:26:21;;;;;;;3.20;1.60;;;16.10;99.90;;;;;;5088094;28;20634;-86
2022/06/09 06:28:50;;;;;;;2.90;1.37;;;16.20;99.90;;;;;;5100506;28;20662;-86
2022/06/09 06:31:17;;;;;;;6.00;1.03;;;16.30;99.90;;;;;;5097779;28;21089;-86
2022/06/09 06:33:44;;;;;;;3.00;1.37;;;16.30;99.90;;;;;;5090441;28;20627;-86
2022/06/09 06:36:13;;;;;;;3.20;1.20;;;16.30;99.90;;;;;;5095083;28;20647;-87
2022/06/09 06:38:40;;;;;;;1.93;1.10;;;16.50;99.90;;;;;;5095210;28;20643;-87
2022/06/09 06:41:08;;;;;;;2.40;1.10;;;16.60;99.90;;;;;;5100904;28;20639;-87
2022/06/09 06:43:36;;;;;;;2.63;1.83;;;16.70;99.90;;;;;;5088532;28;20664;-86
2022/06/09 06:46:06;;;;;;;4.57;1.17;;;16.90;99.90;;;;;;5089871;28;20735;-86
2022/06/09 06:48:34;;;;;;;3.43;1.10;;;17.00;99.90;;;;;;5097189;28;20754;-86
2022/06/09 06:51:01;;;;;;;3.10;1.37;;;17.10;99.90;;;;;;5092692;28;20615;-86
2022/06/09 06:53:29;;;;;;;2.60;1.07;;;17.30;99.90;;;;;;5093241;28;20838;-86
2022/06/09 06:55:56;;;;;;;3.30;0.90;;;17.30;99.90;;;;;;5096706;28;20616;-85
2022/06/09 06:58:23;;;;;;;3.20;1.20;;;17.20;99.90;;;;;;5091531;28;20639;-86
2022/06/09 07:00:50;;;;;;;2.03;1.20;;;17.30;99.90;;;;;;5095620;28;21237;-86
2022/06/09 07:03:18;;;;;;;2.30;1.03;;;17.40;99.90;;;;;;5099440;28;20627;-86
2022/06/09 07:05:45;;;;;;;4.40;2.40;;;17.40;99.90;;;;;;5090247;28;20749;-86
2022/06/09 07:08:15;;;;;;;1.87;1.10;;;17.50;99.90;;;;;;5093133;28;21325;-86
2022/06/09 07:10:43;;;;;;;4.13;1.50;;;17.50;99.90;;;;;;5100493;28;20627;-86
2022/06/09 07:13:11;;;;;;;6.27;1.50;;;17.60;99.90;;;;;;5097112;28;21198;-86
2022/06/09 07:15:37;;;;;;;1.80;0.90;;;17.50;99.90;;;;;;5097655;28;20622;-87
2022/06/09 07:18:05;;;;;;;3.93;1.27;;;17.50;99.90;;;;;;5093558;28;20652;-86
2022/06/09 07:20:33;;;;;;;3.30;1.00;;;17.50;99.90;;;;;;5099880;28;20650;-86
2022/06/09 07:23:00;;;;;;;3.83;1.77;;;17.50;99.90;;;;;;5090341;28;21010;-86
2022/06/09 07:25:28;;;;;;;3.33;1.20;;;17.50;99.90;;;;;;5092770;28;20777;-87
2022/06/09 07:27:56;;;;;;;2.37;1.10;;;17.40;99.90;;;;;;5092640;28;20654;-87
2022/06/09 07:30:25;;;;;;;2.00;0.90;;;17.30;99.90;;;;;;5090437;28;20600;-87
2022/06/09 07:32:53;;;;;;;9.80;1.60;;;17.10;99.90;;;;;;5090833;28;20617;-87
2022/06/09 07:35:24;;;;;;;2.90;1.23;;;17.20;99.90;;;;;;5096629;28;20631;-87
2022/06/09 07:37:52;;;;;;;3.47;1.20;;;17.20;99.90;;;;;;5089186;28;20739;-87
2022/06/09 07:40:19;;;;;;;4.60;1.13;;;17.20;99.90;;;;;;5094945;28;20630;-86
2022/06/09 07:42:48;;;;;;;2.30;1.30;;;17.20;99.90;;;;;;5098339;28;20658;-87
2022/06/09 07:45:16;;;;;;;4.10;1.57;;;17.20;99.90;;;;;;5095922;28;20667;-87
2022/06/09 07:47:43;;;;;;;4.50;1.53;;;17.20;99.90;;;;;;5097337;28;20655;-87
2022/06/09 07:50:11;;;;;;;4.30;1.37;;;17.20;99.90;;;;;;5097483;28;20625;-87
2022/06/09 07:52:39;;;;;;;3.97;1.23;;;17.20;99.90;;;;;;5092948;28;20607;-88
2022/06/09 07:55:09;;;;;;;3.57;1.13;;;17.30;99.90;;;;;;5096152;28;20609;-87
2022/06/09 07:57:36;;;;;;;2.03;0.87;;;17.40;99.90;;;;;;5097646;28;20730;-87
2022/06/09 08:00:04;;;;;;;4.37;1.30;;;17.50;99.90;;;;;;5095738;28;20759;-87
2022/06/09 08:02:31;;;;;;;1.60;1.13;;;17.60;99.90;;;;;;5098196;28;20614;-87
2022/06/09 08:04:59;;;;;;;4.23;1.03;;;17.70;99.90;;;;;;5096107;28;20655;-87
2022/06/09 08:07:26;;;;;;;3.03;1.30;;;17.90;99.90;;;;;;5089470;28;20658;-87
2022/06/09 08:09:54;;;;;;;3.63;1.30;;;18.00;99.90;;;;;;5085623;28;20693;-86
2022/06/09 08:12:23;;;;;;;6.70;1.37;;;18.00;99.90;;;;;;5091947;28;20695;-86
2022/06/09 08:14:50;;;;;;;2.30;1.20;;;18.20;99.90;;;;;;5101701;28;20654;-86
2022/06/09 08:17:16;;;;;;;4.07;1.30;;;18.30;99.90;;;;;;5093761;28;20774;-86
2022/06/09 08:19:45;;;;;;;4.63;1.40;;;18.30;99.90;;;;;;5100469;28;20993;-86
2022/06/09 08:22:13;;;;;;;1.80;0.90;;;18.30;99.90;;;;;;5094241;28;20628;-86
2022/06/09 08:24:40;;;;;;;3.40;1.37;;;18.30;99.90;;;;;;5102900;28;20698;-86
2022/06/09 08:27:08;;;;;;;3.40;1.23;;;18.40;99.90;;;;;;5096442;28;20735;-86
2022/06/09 08:29:37;;;;;;;2.03;1.17;;;18.40;99.90;;;;;;5099657;28;20655;-86
2022/06/09 08:32:05;;;;;;;3.63;1.30;;;18.60;99.90;;;;;;5100662;28;20628;-86
2022/06/09 08:34:32;;;;;;;2.60;1.10;;;18.50;99.90;;;;;;5093150;28;20624;-86
2022/06/09 08:36:59;;;;;;;5.20;1.20;;;18.40;99.90;;;;;;5091406;28;20686;-86
2022/06/09 08:39:26;;;;;;;3.70;1.30;;;18.30;99.90;;;;;;5097968;28;20719;-86
2022/06/09 08:42:03;;;;;;;3.07;0.77;;;18.40;99.90;;;;;;5097614;28;21149;-86
2022/06/09 08:44:40;;;;;;;1.70;1.03;;;18.50;99.90;;;;;;5090899;28;20943;-86
2022/06/09 08:47:15;;;;;;;5.20;1.97;;;18.60;99.90;;;;;;5091417;28;21321;-86
2022/06/09 08:49:59;;;;;;;5.83;1.70;;;18.60;99.90;;;;;;5100244;28;20630;-86
2022/06/09 08:52:38;;;;;;;1.93;1.00;;;18.80;99.90;;;;;;5094550;28;20651;-86
2022/06/09 08:55:18;;;;;;;5.27;1.50;;;18.90;99.90;;;;;;5092803;28;20627;-86
2022/06/09 08:57:46;;;;;;;6.60;1.40;;;19.10;99.90;;;;;;5093547;28;20647;-86
2022/06/09 09:00:19;;;;;;;2.37;0.90;;;19.30;99.90;;;;;;5094875;28;20655;-86
2022/06/09 09:02:52;;;;;;;5.50;1.10;;;19.30;99.90;;;;;;5091112;28;20732;-86
2022/06/09 09:05:23;;;;;;;6.63;1.40;;;19.20;99.90;;;;;;5097216;28;20649;-86
2022/06/09 09:07:55;;;;;;;2.20;0.90;;;18.90;99.90;;;;;;5097846;28;20675;-86
2022/06/09 09:10:31;;;;;;;3.00;0.87;;;18.90;99.90;;;;;;5092898;28;21068;-86
2022/06/09 09:13:19;;;;;;;3.07;1.33;;;18.90;99.90;;;;;;5088973;28;20640;-86
2022/06/09 09:15:52;;;;;;;1.97;1.10;;;19.00;99.90;;;;;;5092622;28;21150;-86
2022/06/09 09:18:34;;;;;;;5.80;1.20;;;19.00;99.90;;;;;;5093147;28;20639;-87
2022/06/09 09:21:19;;;;;;;3.50;1.03;;;19.00;99.90;;;;;;5090125;28;20631;-86
2022/06/09 09:23:57;;;;;;;1.53;1.00;;;18.90;99.90;;;;;;5091155;28;20626;-86
2022/06/09 09:26:33;;;;;;;4.97;1.10;;;19.00;99.90;;;;;;5085490;28;20647;-86
2022/06/09 09:29:09;;;;;;;3.30;1.20;;;19.10;99.90;;;;;;5086605;28;20624;-86
2022/06/09 09:31:49;;;;;;;5.00;1.03;;;19.20;99.90;;;;;;5095982;28;20684;-85
2022/06/09 09:34:19;;;;;;;2.27;0.83;;;19.20;99.90;;;;;;5091500;28;20707;-86
2022/06/09 09:36:50;;;;;;;3.13;0.83;;;19.10;99.90;;;;;;5086568;28;20613;-85
2022/06/09 09:39:20;;;;;;;3.53;0.70;;;18.90;99.90;;;;;;5090551;28;20676;-86
2022/06/09 09:41:47;;;;;;;3.80;1.43;;;18.90;99.90;;;;;;5085825;28;20638;-86
2022/06/09 09:44:18;;;;;;;2.77;0.90;;;19.10;99.90;;;;;;5083531;28;20628;-86
2022/06/09 09:46:52;;;;;;;3.53;1.03;;;19.20;99.90;;;;;;5084191;28;20713;-86
2022/06/09 09:49:25;;;;;;;3.13;1.30;;;19.40;99.90;;;;;;5094082;28;20662;-86
2022/06/09 09:51:53;;;;;;;1.43;0.90;;;19.40;99.90;;;;;;5091361;28;20743;-85
2022/06/09 09:54:26;;;;;;;2.00;0.93;;;19.50;99.90;;;;;;5096176;28;20619;-86
2022/06/09 09:57:07;;;;;;;6.43;1.60;;;19.50;99.90;;;;;;5091084;28;20632;-86
2022/06/09 09:59:45;;;;;;;3.77;1.30;;;19.70;99.90;;;;;;5077662;28;20644;-85
2022/06/09 10:08:38;;;;;;;6.33;1.00;;;19.80;99.90;;;;;;5092262;28;20700;-85
2022/06/09 10:13:59;;;;;;;1.67;1.20;;;19.90;99.90;;;;;;5083199;28;20612;-86
2022/06/09 10:16:29;;;;;;;2.93;1.03;;;19.90;99.90;;;;;;5094609;28;20631;-86
2022/06/09 10:19:04;;;;;;;5.43;1.00;;;20.00;99.90;;;;;;5084755;28;20756;-86
2022/06/09 10:21:49;;;;;;;4.13;0.87;;;20.00;99.90;;;;;;5082713;28;20707;-86
2022/06/09 10:24:17;;;;;;;5.67;0.90;;;20.10;99.90;;;;;;5090060;28;20632;-86
2022/06/09 10:26:47;;;;;;;3.17;1.00;;;20.30;99.90;;;;;;5087150;28;20690;-86
2022/06/09 10:29:22;;;;;;;5.20;1.37;;;20.40;99.90;;;;;;5093448;28;20636;-86
2022/06/09 10:31:56;;;;;;;3.17;0.87;;;20.40;99.90;;;;;;5091620;28;20725;-86
2022/06/09 10:34:41;;;;;;;2.30;1.07;;;20.30;99.90;;;;;;5089786;28;21055;-86
2022/06/09 10:37:21;;;;;;;2.43;0.90;;;20.40;99.90;;;;;;5093643;28;20719;-86
2022/06/09 10:39:58;;;;;;;2.97;1.10;;;20.50;99.90;;;;;;5085630;28;20749;-86
2022/06/09 10:42:31;;;;;;;2.63;0.70;;;20.90;97.50;;;;;;5094458;28;20626;-86
2022/06/09 10:45:19;;;;;;;2.00;1.10;;;21.00;95.40;;;;;;5087460;28;20659;-86
2022/06/09 10:56:27;;;;;;;2.27;1.10;;;21.20;94.80;;;;;;5092724;28;20633;-86
2022/06/09 10:59:03;;;;;;;1.60;1.03;;;21.20;94.30;;;;;;5089961;28;20720;-86
2022/06/09 11:01:35;;;;;;;3.57;1.10;;;21.50;95.50;;;;;;5087767;28;20624;-86
2022/06/09 11:04:06;;;;;;;3.47;0.77;;;21.70;95.00;;;;;;5089758;28;20632;-87
2022/06/09 11:07:08;;;;;;;2.90;1.00;;;21.60;95.30;;;;;;5091104;28;20734;-87
2022/06/09 11:09:44;;;;;;;2.87;1.30;;;21.30;95.70;;;;;;5091138;28;20640;-86
2022/06/09 11:12:21;;;;;;;3.63;0.90;;;20.90;95.90;;;;;;5086596;28;20648;-87
2022/06/09 11:15:00;;;;;;;4.20;0.90;;;20.80;95.90;;;;;;5089628;28;20741;-86
2022/06/09 11:17:40;;;;;;;2.33;0.80;;;20.70;96.50;;;;;;5088610;28;20670;-86
2022/06/09 11:20:17;;;;;;;2.93;0.70;;;21.00;96.90;;;;;;5089159;28;20712;-85
2022/06/09 11:22:59;;;;;;;6.50;0.70;;;21.10;95.10;;;;;;5089457;28;20647;-86
2022/06/09 11:25:50;;;;;;;2.43;0.97;;;21.20;96.30;;;;;;5090348;28;20658;-86
2022/06/09 11:28:27;;;;;;;4.93;1.20;;;21.60;95.70;;;;;;5090122;28;20738;-86
2022/06/09 11:31:20;;;;;;;1.67;1.00;;;21.60;94.90;;;;;;5091995;28;21176;-86
2022/06/09 11:34:11;;;;;;;3.83;1.20;;;21.80;93.90;;;;;;5081144;28;20669;-86
2022/06/09 11:36:49;;;;;;;3.93;1.10;;;22.00;90.10;;;;;;5080200;28;20647;-86
2022/06/09 11:39:35;;;;;;;3.70;1.17;;;22.10;87.60;;;;;;5079155;28;20669;-86
2022/06/09 11:42:06;;;;;;;3.23;1.07;;;22.20;90.60;;;;;;5083634;28;20636;-86
2022/06/09 11:44:36;;;;;;;4.87;1.60;;;22.40;90.60;;;;;;5078911;28;21056;-86
2022/06/09 11:47:06;;;;;;;3.80;1.00;;;22.40;89.70;;;;;;5089087;28;20676;-86
2022/06/09 11:49:37;;;;;;;2.80;0.90;;;22.70;88.90;;;;;;5096267;28;21176;-86
2022/06/09 11:52:08;;;;;;;2.80;0.90;;;23.00;89.00;;;;;;5093869;28;20627;-86
2022/06/09 11:54:57;;;;;;;4.10;0.90;;;23.40;87.40;;;;;;5093253;28;20674;-86
2022/06/09 11:57:43;;;;;;;3.33;1.13;;;23.90;87.60;;;;;;5096121;28;20650;-87
2022/06/09 12:00:37;;;;;;;5.87;1.53;;;24.30;84.40;;;;;;5089526;28;20632;-87
2022/06/09 12:03:22;;;;;;;2.70;0.90;;;24.40;81.20;;;;;;5091330;28;20630;-86
2022/06/09 12:05:54;;;;;;;1.93;1.00;;;24.20;76.80;;;;;;5094648;28;20711;-87
2022/06/09 12:08:32;;;;;;;3.27;0.93;;;24.10;78.60;;;;;;5085318;28;20744;-87
2022/06/09 12:11:09;;;;;;;2.33;0.90;;;24.30;77.60;;;;;;5094964;28;20637;-87
2022/06/09 12:13:54;;;;;;;0.90;0.80;;;24.30;78.20;;;;;;5091966;28;20631;-87
2022/06/09 12:16:29;;;;;;;1.97;1.00;;;24.40;74.40;;;;;;5095471;28;20653;-87
2022/06/09 12:19:08;;;;;;;3.67;1.10;;;24.20;74.00;;;;;;5094581;28;20658;-87
2022/06/09 12:21:38;;;;;;;1.87;0.93;;;24.10;74.20;;;;;;5097993;28;20616;-87
2022/06/09 12:24:32;;;;;;;1.73;0.80;;;24.20;75.90;;;;;;5094637;28;20634;-87
2022/06/09 12:27:21;;;;;;;3.20;1.10;;;24.30;74.40;;;;;;5092771;28;20679;-87
2022/06/09 12:30:37;;;;;;;2.47;1.00;;;24.40;74.80;;;;;;5091424;28;20610;-87
2022/06/09 12:33:32;;;;;;;4.93;1.10;;;24.50;72.90;;;;;;5093767;28;20624;-87
2022/06/09 12:36:06;;;;;;;3.10;1.10;;;24.50;72.60;;;;;;5089406;28;21137;-86
2022/06/09 12:38:38;;;;;;;1.43;0.87;;;24.50;71.60;;;;;;5095885;28;20730;-86
2022/06/09 12:41:17;;;;;;;3.23;1.10;;;24.50;72.10;;;;;;5093419;28;20708;-86
2022/06/09 12:43:57;;;;;;;2.70;1.00;;;24.80;69.20;;;;;;5064338;28;20636;-85
2022/06/09 12:46:27;;;;;;;0.90;0.67;;;24.80;65.40;;;;;;5090116;28;20662;-86
2022/06/09 12:48:57;;;;;;;2.77;1.20;;;25.00;65.10;;;;;;5088848;28;20651;-85
2022/06/09 12:51:27;;;;;;;1.80;1.00;;;24.80;64.40;;;;;;5088143;28;20675;-85
2022/06/09 12:54:02;;;;;;;3.40;0.90;;;24.90;65.00;;;;;;5083477;28;21096;-86
2022/06/09 12:56:39;;;;;;;2.20;1.10;;;25.10;65.40;;;;;;5093408;28;20618;-86
2022/06/09 12:59:19;;;;;;;1.57;1.00;;;25.30;65.50;;;;;;5088544;28;20644;-86
2022/06/09 13:01:56;;;;;;;2.87;1.13;;;25.30;63.30;;;;;;5088493;28;20630;-86
2022/06/09 13:04:25;;;;;;;2.60;0.80;;;25.70;64.10;;;;;;5092893;28;20618;-87
2022/06/09 13:06:57;;;;;;;1.53;0.90;;;25.90;62.60;;;;;;5091545;28;20652;-87
2022/06/09 13:09:27;;;;;;;3.90;1.07;;;25.90;61.90;;;;;;5090536;28;21447;-87
2022/06/09 13:14:46;;;;;;;3.43;1.30;;;26.40;63.30;;;;;;5094014;28;20726;-87
2022/06/09 13:17:18;;;;;;;5.13;1.30;;;26.40;61.60;;;;;;5094942;28;20654;-86
2022/06/09 13:19:56;;;;;;;3.00;1.40;;;26.30;64.20;;;;;;5095208;28;20660;-87
2022/06/09 13:22:28;;;;;;;3.63;1.10;;;26.80;63.50;;;;;;5093752;28;21137;-87
2022/06/09 13:24:56;;;;;;;2.20;0.80;;;27.30;61.30;;;;;;5090095;28;20721;-87
2022/06/09 13:27:27;;;;;;;2.03;0.97;;;27.60;55.40;;;;;;5089505;28;20683;-87
2022/06/09 13:30:02;;;;;;;4.13;0.93;;;27.70;55.60;;;;;;5094860;28;20623;-86
2022/06/09 13:32:37;;;;;;;2.50;1.30;;;27.60;56.30;;;;;;5092613;28;20623;-87
2022/06/09 13:35:26;;;;;;;2.60;1.33;;;27.50;56.50;;;;;;5092132;28;20620;-87
2022/06/09 13:38:04;;;;;;;3.40;1.00;;;27.30;56.70;;;;;;5092906;28;20647;-87